This is the latest recevied weather packets stored in our database for station/object EB1BWO-11. If no packets are shown the sender has not sent any weather packets the latest 10 day(s).
| Time | Temp. | Humidity | Pressure | Rain* | Wind** | Luminosity | Snow |
|---|---|---|---|---|---|---|---|
| 1787909028 | 28.33° C | 51% | 1019.7 hPa | - | - | - | - |
| 1787908126 | 28.89° C | 51% | 1019.5 hPa | - | - | - | - |
| 1787907225 | 28.89° C | 50% | 1019.3 hPa | - | - | - | - |
| 1787906325 | 26.67° C | 56% | 1019.2 hPa | - | - | - | - |
| 1787905424 | 25° C | 59% | 1019.2 hPa | - | - | - | - |
| 1787904524 | 25° C | 56% | 1019.2 hPa | - | - | - | - |
| 1787903623 | 23.33° C | 57% | 1019.2 hPa | - | - | - | - |
| 1787902722 | 21.67° C | 65% | 1019 hPa | - | - | - | - |
| 1787901821 | 20.56° C | 67% | 1018.9 hPa | - | - | - | - |
| 1787900921 | 19.44° C | 68% | 1018.8 hPa | - | - | - | - |
| 1787900020 | 17.22° C | 70% | 1018.8 hPa | - | - | - | - |
| 1787899119 | 16.11° C | 70% | 1018.9 hPa | - | - | - | - |
| 1787898219 | 14.44° C | 70% | 1018.8 hPa | - | - | - | - |
| 1787897318 | 13.89° C | 70% | 1018.8 hPa | - | - | - | - |
| 1787896418 | 13.33° C | 68% | 1018.8 hPa | - | - | - | - |
| 1787895517 | 12.78° C | 70% | 1018.9 hPa | - | - | - | - |
| 1787894616 | 12.78° C | 71% | 1019.1 hPa | - | - | - | - |
| 1787893715 | 12.78° C | 71% | 1018.9 hPa | - | - | - | - |
| 1787892815 | 13.33° C | 69% | 1018.8 hPa | - | - | - | - |
| 1787891914 | 12.78° C | 71% | 1018.8 hPa | - | - | - | - |
| 1787891013 | 13.89° C | 70% | 1018.7 hPa | - | - | - | - |
| 1787890112 | 13.89° C | 69% | 1018.5 hPa | - | - | - | - |
| 1787889211 | 13.89° C | 70% | 1018.6 hPa | - | - | - | - |
| 1787888317 | 13.89° C | 70% | 1018.4 hPa | - | - | - | - |
| 1787887410 | 13.89° C | 71% | 1018.4 hPa | - | - | - | - |
* Rain since midnight (hover to see other rain measurements)
** Current wind speed in m/s (hover to see current wind gust speed)